Time;durP1;ratioP1;P1;durP2;ratioP2;P2;SDS_P1;SDS_P2;PMS_P1;PMS_P2;Temp;Humidity;BMP_temperature;BMP_pressure;BME280_temperature;BME280_humidity;BME280_pressure;Samples;Min_cycle;Max_cycle;Signal;HPM_P1;HPM_P2
2022/08/29 00:01:17;;;;;;;;;;;;;;;;;;6065655;23;8484;-87
2022/08/29 00:03:43;;;;;;;;;;;;;;;;;;6065420;23;7038;-85
2022/08/29 00:06:09;;;;;;;;;;;;;;;;;;6065566;23;8259;-86
2022/08/29 00:08:34;;;;;;;;;;;;;;;;;;6065547;23;7121;-85
2022/08/29 00:11:00;;;;;;;;;;;;;;;;;;6065814;23;8739;-86
2022/08/29 00:13:26;;;;;;;;;;;;;;;;;;6065273;23;8553;-86
2022/08/29 00:15:52;;;;;;;;;;;;;;;;;;6066132;23;7150;-84
2022/08/29 00:18:19;;;;;;;;;;;;;;;;;;6065776;23;8403;-84
2022/08/29 00:20:46;;;;;;;;;;;;;;;;;;6065588;23;7042;-84
2022/08/29 00:23:11;;;;;;;;;;;;;;;;;;6065204;23;7011;-84
2022/08/29 00:25:37;;;;;;;;;;;;;;;;;;6066226;23;8557;-85
2022/08/29 00:28:03;;;;;;;;;;;;;;;;;;6065650;23;8004;-84
2022/08/29 00:30:31;;;;;;;;;;;;;;;;;;6066023;23;7121;-83
2022/08/29 00:32:56;;;;;;;;;;;;;;;;;;6065755;23;6913;-85
2022/08/29 00:35:24;;;;;;;;;;;;;;;;;;6065472;23;7006;-85
2022/08/29 00:37:51;;;;;;;;;;;;;;;;;;6065254;23;7135;-85
2022/08/29 00:40:19;;;;;;;;;;;;;;;;;;6065729;23;8355;-85
2022/08/29 00:42:45;;;;;;;;;;;;;;;;;;6065454;23;8485;-84
2022/08/29 00:45:11;;;;;;;;;;;;;;;;;;6065120;23;7008;-85
2022/08/29 00:47:40;;;;;;;;;;;;;;;;;;6065731;23;8386;-85
2022/08/29 00:50:09;;;;;;;;;;;;;;;;;;6065877;23;8466;-85
2022/08/29 00:52:41;;;;;;;;;;;;;;;;;;6065660;23;8749;-84
2022/08/29 00:55:11;;;;;;;;;;;;;;;;;;6065413;23;7210;-84
2022/08/29 00:57:40;;;;;;;;;;;;;;;;;;6065289;23;8520;-85
2022/08/29 01:00:06;;;;;;;;;;;;;;;;;;6065156;23;7152;-85
2022/08/29 01:02:32;;;;;;;;;;;;;;;;;;6064262;23;8366;-85
2022/08/29 01:04:59;;;;;;;;;;;;;;;;;;6065950;23;7166;-83
2022/08/29 01:07:25;;;;;;;;;;;;;;;;;;6065661;23;8390;-85
2022/08/29 01:09:52;;;;;;;;;;;;;;;;;;6065287;23;7140;-85
2022/08/29 01:12:20;;;;;;;;;;;;;;;;;;6065078;23;7214;-86
2022/08/29 01:14:54;;;;;;;;;;;;;;;;;;6065390;23;8348;-86
2022/08/29 01:17:30;;;;;;;;;;;;;;;;;;6065396;23;8422;-85
2022/08/29 01:20:05;;;;;;;;;;;;;;;;;;6065038;23;6990;-84
2022/08/29 01:22:46;;;;;;;;;;;;;;;;;;6064573;23;7018;-84
2022/08/29 01:25:18;;;;;;;;;;;;;;;;;;6064315;23;7472;-85
2022/08/29 01:27:50;;;;;;;;;;;;;;;;;;6064316;23;7023;-85
2022/08/29 01:30:16;;;;;;;;;;;;;;;;;;6064337;23;7195;-87
2022/08/29 01:32:42;;;;;;;;;;;;;;;;;;6065037;23;6977;-84
2022/08/29 01:35:07;;;;;;;;;;;;;;;;;;6064237;23;8465;-87
2022/08/29 01:37:36;;;;;;;;;;;;;;;;;;6064418;23;7020;-86
2022/08/29 01:40:02;;;;;;;;;;;;;;;;;;6064678;23;7025;-84
2022/08/29 01:42:28;;;;;;;;;;;;;;;;;;6064407;23;6802;-84
2022/08/29 01:44:56;;;;;;;;;;;;;;;;;;6064385;23;7097;-85
2022/08/29 01:47:24;;;;;;;;;;;;;;;;;;6064351;23;7067;-84
2022/08/29 01:49:51;;;;;;;;;;;;;;;;;;6064619;23;8439;-84
2022/08/29 01:52:17;;;;;;;;;;;;;;;;;;6064740;23;7015;-83
2022/08/29 01:54:44;;;;;;;;;;;;;;;;;;6064465;23;8348;-82
2022/08/29 01:57:10;;;;;;;;;;;;;;;;;;6064432;23;7036;-84
2022/08/29 01:59:36;;;;;;;;;;;;;;;;;;6064371;23;7100;-85
2022/08/29 02:02:14;;;;;;;;;;;;;;;;;;6064198;23;8706;-85
2022/08/29 02:04:40;;;;;;;;;;;;;;;;;;6064782;23;7030;-85
2022/08/29 02:07:07;;;;;;;;;;;;;;;;;;6064359;23;8244;-85
2022/08/29 02:09:33;;;;;;;;;;;;;;;;;;6064389;23;8421;-85
2022/08/29 02:12:01;;;;;;;;;;;;;;;;;;6064403;23;7243;-85
2022/08/29 02:14:28;;;;;;;;;;;;;;;;;;6064954;23;7023;-85
2022/08/29 02:16:54;;;;;;;;;;;;;;;;;;6064255;23;7025;-85
2022/08/29 02:19:20;;;;;;;;;;;;;;;;;;6064445;23;7415;-84
2022/08/29 02:21:46;;;;;;;;;;;;;;;;;;6062471;23;8352;-84
2022/08/29 02:24:11;;;;;;;;;;;;;;;;;;6063295;23;8280;-84
2022/08/29 02:26:37;;;;;;;;;;;;;;;;;;6064434;23;7128;-85
2022/08/29 02:29:02;;;;;;;;;;;;;;;;;;6064907;23;7868;-84
2022/08/29 02:31:28;;;;;;;;;;;;;;;;;;6064521;23;7085;-85
2022/08/29 02:33:55;;;;;;;;;;;;;;;;;;6064362;23;7157;-85
2022/08/29 02:36:21;;;;;;;;;;;;;;;;;;6064153;23;7044;-83
2022/08/29 02:38:47;;;;;;;;;;;;;;;;;;6064583;23;8552;-85
2022/08/29 02:41:13;;;;;;;;;;;;;;;;;;6064571;23;8543;-84
2022/08/29 02:43:38;;;;;;;;;;;;;;;;;;6064603;23;8682;-84
2022/08/29 02:46:05;;;;;;;;;;;;;;;;;;6064350;23;7316;-85
2022/08/29 02:48:30;;;;;;;;;;;;;;;;;;6064453;23;7087;-85
2022/08/29 02:50:57;;;;;;;;;;;;;;;;;;6064235;23;8405;-85
2022/08/29 02:53:25;;;;;;;;;;;;;;;;;;6064161;23;7144;-84
2022/08/29 02:55:51;;;;;;;;;;;;;;;;;;6064089;23;7014;-86
2022/08/29 02:58:18;;;;;;;;;;;;;;;;;;6063586;23;7156;-86
2022/08/29 03:00:43;;;;;;;;;;;;;;;;;;6064366;23;8374;-84
2022/08/29 03:03:09;;;;;;;;;;;;;;;;;;6064213;23;7125;-85
2022/08/29 03:05:36;;;;;;;;;;;;;;;;;;6063996;23;8406;-85
2022/08/29 03:08:03;;;;;;;;;;;;;;;;;;6064529;23;7564;-83
2022/08/29 03:10:29;;;;;;;;;;;;;;;;;;6064314;23;7137;-85
2022/08/29 03:12:54;;;;;;;;;;;;;;;;;;6064346;23;6992;-85
2022/08/29 03:15:21;;;;;;;;;;;;;;;;;;6063676;23;7360;-85
2022/08/29 03:17:46;;;;;;;;;;;;;;;;;;6063919;23;7028;-85
2022/08/29 03:20:14;;;;;;;;;;;;;;;;;;6063760;23;8393;-86
2022/08/29 03:22:41;;;;;;;;;;;;;;;;;;6063875;23;8684;-85
2022/08/29 03:25:07;;;;;;;;;;;;;;;;;;6064758;23;7108;-85
2022/08/29 03:27:33;;;;;;;;;;;;;;;;;;6065581;23;8308;-84
2022/08/29 03:30:00;;;;;;;;;;;;;;;;;;6065311;23;8588;-85
2022/08/29 03:32:26;;;;;;;;;;;;;;;;;;6065568;23;8594;-86
2022/08/29 03:34:52;;;;;;;;;;;;;;;;;;6065847;23;8635;-84
2022/08/29 03:37:18;;;;;;;;;;;;;;;;;;6065805;23;8376;-85
2022/08/29 03:39:43;;;;;;;;;;;;;;;;;;6066183;23;8386;-85
2022/08/29 03:42:10;;;;;;;;;;;;;;;;;;6065518;23;7127;-85
2022/08/29 03:44:37;;;;;;;;;;;;;;;;;;6065437;23;7209;-84
2022/08/29 03:47:02;;;;;;;;;;;;;;;;;;6065842;23;8349;-85
2022/08/29 03:49:28;;;;;;;;;;;;;;;;;;6066025;23;8419;-84
2022/08/29 03:51:53;;;;;;;;;;;;;;;;;;6065705;23;7073;-85
2022/08/29 03:54:19;;;;;;;;;;;;;;;;;;6065455;23;8559;-85
2022/08/29 03:56:45;;;;;;;;;;;;;;;;;;6065224;23;8344;-85
2022/08/29 03:59:11;;;;;;;;;;;;;;;;;;6064997;23;8288;-84
2022/08/29 04:01:37;;;;;;;;;;;;;;;;;;6066067;23;8383;-85
2022/08/29 04:04:04;;;;;;;;;;;;;;;;;;6065995;23;8948;-84
2022/08/29 04:06:32;;;;;;;;;;;;;;;;;;6065622;23;8685;-85
2022/08/29 04:08:59;;;;;;;;;;;;;;;;;;6065775;23;8731;-85
2022/08/29 04:11:27;;;;;;;;;;;;;;;;;;6058318;23;7353;-83
2022/08/29 04:13:53;;;;;;;;;;;;;;;;;;6062340;23;6808;-86
2022/08/29 04:16:20;;;;;;;;;;;;;;;;;;6063605;23;8447;-85
2022/08/29 04:18:47;;;;;;;;;;;;;;;;;;6062714;23;8435;-81
2022/08/29 04:21:12;;;;;;;;;;;;;;;;;;6064048;23;8396;-86
2022/08/29 04:23:38;;;;;;;;;;;;;;;;;;6064510;23;7161;-83
2022/08/29 04:26:05;;;;;;;;;;;;;;;;;;6063264;23;6799;-85
2022/08/29 04:28:30;;;;;;;;;;;;;;;;;;6064541;23;8499;-82
2022/08/29 04:30:56;;;;;;;;;;;;;;;;;;6064387;23;8588;-85
2022/08/29 04:33:23;;;;;;;;;;;;;;;;;;6063531;23;8382;-85
2022/08/29 04:35:49;;;;;;;;;;;;;;;;;;6064230;23;8288;-82
2022/08/29 04:38:15;;;;;;;;;;;;;;;;;;6064115;23;7151;-85
2022/08/29 04:40:41;;;;;;;;;;;;;;;;;;6062762;23;7449;-85
2022/08/29 04:43:07;;;;;;;;;;;;;;;;;;6063960;23;7033;-83
2022/08/29 04:45:34;;;;;;;;;;;;;;;;;;6062767;23;8435;-85
2022/08/29 04:48:01;;;;;;;;;;;;;;;;;;6065370;23;7328;-85
2022/08/29 04:50:27;;;;;;;;;;;;;;;;;;6065152;23;8352;-85
2022/08/29 04:52:52;;;;;;;;;;;;;;;;;;6065795;23;7045;-86
2022/08/29 04:55:20;;;;;;;;;;;;;;;;;;6064808;23;7126;-85
2022/08/29 04:57:46;;;;;;;;;;;;;;;;;;6064734;23;7103;-85
2022/08/29 05:00:13;;;;;;;;;;;;;;;;;;6042125;23;7112;-85
2022/08/29 05:02:40;;;;;;;;;;;;;;;;;;6041122;23;7322;-86
2022/08/29 05:05:07;;;;;;;;;;;;;;;;;;6041125;23;6893;-85
2022/08/29 05:07:32;;;;;;;;;;;;;;;;;;6041730;23;8303;-84
2022/08/29 05:10:01;;;;;;;;;;;;;;;;;;6041666;23;8663;-85
2022/08/29 05:12:28;;;;;;;;;;;;;;;;;;6041256;23;7022;-86
2022/08/29 05:14:53;;;;;;;;;;;;;;;;;;6041042;23;7141;-86
2022/08/29 05:17:20;;;;;;;;;;;;;;;;;;6042841;23;8508;-86
2022/08/29 05:19:46;;;;;;;;;;;;;;;;;;6041068;23;8280;-86
2022/08/29 05:22:13;;;;;;;;;;;;;;;;;;6041331;23;7016;-87
2022/08/29 05:24:39;;;;;;;;;;;;;;;;;;6041014;23;8654;-86
2022/08/29 05:27:10;;;;;;;;;;;;;;;;;;6041381;23;7147;-86
2022/08/29 05:29:43;;;;;;;;;;;;;;;;;;6040972;23;8343;-86
2022/08/29 05:32:10;;;;;;;;;;;;;;;;;;6040554;23;7405;-85
2022/08/29 05:34:37;;;;;;;;;;;;;;;;;;6040953;23;7978;-83
2022/08/29 05:37:04;;;;;;;;;;;;;;;;;;6041374;23;8418;-85
2022/08/29 05:39:30;;;;;;;;;;;;;;;;;;6040885;23;8550;-85
2022/08/29 05:41:57;;;;;;;;;;;;;;;;;;6040758;23;8448;-83
2022/08/29 05:44:23;;;;;;;;;;;;;;;;;;6040981;23;8287;-83
2022/08/29 05:46:48;;;;;;;;;;;;;;;;;;6040626;23;7143;-84
2022/08/29 05:49:14;;;;;;;;;;;;;;;;;;6041573;23;7340;-84
2022/08/29 05:51:40;;;;;;;;;;;;;;;;;;6040878;23;8459;-84
2022/08/29 05:54:05;;;;;;;;;;;;;;;;;;6040581;23;8397;-84
2022/08/29 05:56:31;;;;;;;;;;;;;;;;;;6040224;23;7117;-85
2022/08/29 05:58:56;;;;;;;;;;;;;;;;;;6050110;23;8501;-85
2022/08/29 06:01:24;;;;;;;;;;;;;;;;;;6064407;23;8746;-83
2022/08/29 06:03:50;;;;;;;;;;;;;;;;;;6064658;23;8593;-85
2022/08/29 06:06:19;;;;;;;;;;;;;;;;;;6064751;23;8317;-85
2022/08/29 06:08:44;;;;;;;;;;;;;;;;;;6064326;23;8374;-85
2022/08/29 06:11:14;;;;;;;;;;;;;;;;;;6063852;23;9268;-83
2022/08/29 06:13:40;;;;;;;;;;;;;;;;;;6064349;23;7135;-85
2022/08/29 06:16:05;;;;;;;;;;;;;;;;;;6064150;23;8400;-85
2022/08/29 06:18:31;;;;;;;;;;;;;;;;;;6064108;23;8678;-87
2022/08/29 06:20:56;;;;;;;;;;;;;;;;;;6063852;23;7130;-88
2022/08/29 06:23:22;;;;;;;;;;;;;;;;;;6064447;23;8574;-87
2022/08/29 06:25:54;;;;;;;;;;;;;;;;;;6064833;23;8380;-85
2022/08/29 06:28:20;;;;;;;;;;;;;;;;;;6064573;23;8464;-85
2022/08/29 06:30:45;;;;;;;;;;;;;;;;;;6064293;23;8471;-84
2022/08/29 06:33:11;;;;;;;;;;;;;;;;;;6064514;23;8893;-85
2022/08/29 06:35:36;;;;;;;;;;;;;;;;;;6064503;23;8417;-85
2022/08/29 06:38:02;;;;;;;;;;;;;;;;;;6064129;23;8892;-84
2022/08/29 06:40:27;;;;;;;;;;;;;;;;;;6064158;23;7012;-84
2022/08/29 06:42:53;;;;;;;;;;;;;;;;;;6064936;23;8394;-85
2022/08/29 06:45:18;;;;;;;;;;;;;;;;;;6064862;23;7196;-84
2022/08/29 06:47:46;;;;;;;;;;;;;;;;;;6064210;23;8395;-83
2022/08/29 06:50:12;;;;;;;;;;;;;;;;;;6064118;23;8924;-85
2022/08/29 06:52:38;;;;;;;;;;;;;;;;;;6064528;23;8660;-84
2022/08/29 06:55:04;;;;;;;;;;;;;;;;;;6064216;23;8395;-84
2022/08/29 06:57:30;;;;;;;;;;;;;;;;;;6064649;23;7496;-84
2022/08/29 06:59:55;;;;;;;;;;;;;;;;;;6065434;23;7038;-84
2022/08/29 07:02:21;;;;;;;;;;;;;;;;;;6065823;23;7174;-85
2022/08/29 07:04:46;;;;;;;;;;;;;;;;;;6065850;23;6814;-84
2022/08/29 07:07:12;;;;;;;;;;;;;;;;;;6065427;23;7015;-85
2022/08/29 07:09:37;;;;;;;;;;;;;;;;;;6065869;23;8476;-85
2022/08/29 07:12:04;;;;;;;;;;;;;;;;;;6065753;23;8539;-84
2022/08/29 07:14:30;;;;;;;;;;;;;;;;;;6065689;23;7025;-84
2022/08/29 07:16:55;;;;;;;;;;;;;;;;;;6065660;23;8780;-83
2022/08/29 07:19:21;;;;;;;;;;;;;;;;;;6066604;23;7018;-85
2022/08/29 07:21:48;;;;;;;;;;;;;;;;;;6065091;23;6990;-84
2022/08/29 07:24:13;;;;;;;;;;;;;;;;;;6066039;23;8529;-85
2022/08/29 07:26:41;;;;;;;;;;;;;;;;;;6065950;23;8667;-85
2022/08/29 07:29:11;;;;;;;;;;;;;;;;;;6066416;23;7236;-83
2022/08/29 07:31:37;;;;;;;;;;;;;;;;;;6065977;23;8426;-85
2022/08/29 07:34:04;;;;;;;;;;;;;;;;;;6066005;23;8284;-85
2022/08/29 07:36:32;;;;;;;;;;;;;;;;;;6065530;23;6983;-85
2022/08/29 07:38:58;;;;;;;;;;;;;;;;;;6066057;23;8384;-85
2022/08/29 07:41:24;;;;;;;;;;;;;;;;;;6066373;23;6963;-86
2022/08/29 07:43:50;;;;;;;;;;;;;;;;;;6065530;23;7259;-88
2022/08/29 07:46:18;;;;;;;;;;;;;;;;;;6065497;23;8716;-87
2022/08/29 07:48:44;;;;;;;;;;;;;;;;;;6065787;23;8788;-88
2022/08/29 07:51:11;;;;;;;;;;;;;;;;;;6065272;23;8393;-86
2022/08/29 07:53:37;;;;;;;;;;;;;;;;;;6066226;23;8387;-86
2022/08/29 07:56:07;;;;;;;;;;;;;;;;;;6065548;23;8374;-87
2022/08/29 07:58:34;;;;;;;;;;;;;;;;;;6067354;23;8292;-87
2022/08/29 08:00:59;;;;;;;;;;;;;;;;;;6065405;23;8612;-89
2022/08/29 08:03:25;;;;;;;;;;;;;;;;;;6065454;23;7005;-87
2022/08/29 08:05:52;;;;;;;;;;;;;;;;;;6065322;23;8435;-87
2022/08/29 08:08:18;;;;;;;;;;;;;;;;;;6065005;23;8564;-87
2022/08/29 08:10:43;;;;;;;;;;;;;;;;;;6064500;23;7131;-87
2022/08/29 08:13:09;;;;;;;;;;;;;;;;;;6066155;23;7119;-87
2022/08/29 08:15:37;;;;;;;;;;;;;;;;;;6065277;23;7138;-87
2022/08/29 08:18:03;;;;;;;;;;;;;;;;;;6065387;23;7222;-88
2022/08/29 08:20:29;;;;;;;;;;;;;;;;;;6065475;23;8691;-88
2022/08/29 08:22:56;;;;;;;;;;;;;;;;;;6066921;23;7169;-89
2022/08/29 08:25:22;;;;;;;;;;;;;;;;;;6066000;23;8422;-88
2022/08/29 08:27:48;;;;;;;;;;;;;;;;;;6065922;23;7157;-89
2022/08/29 08:30:14;;;;;;;;;;;;;;;;;;6066444;23;7302;-88
2022/08/29 08:32:39;;;;;;;;;;;;;;;;;;6065761;23;8458;-88
2022/08/29 08:35:05;;;;;;;;;;;;;;;;;;6065388;23;8607;-88
2022/08/29 08:37:30;;;;;;;;;;;;;;;;;;6065807;23;8394;-89
2022/08/29 08:39:56;;;;;;;;;;;;;;;;;;6065390;23;7122;-86
2022/08/29 08:42:41;;;;;;;;;;;;;;;;;;6065769;23;8867;-87
2022/08/29 08:45:07;;;;;;;;;;;;;;;;;;6066168;23;8406;-88
2022/08/29 08:47:42;;;;;;;;;;;;;;;;;;6041810;23;7024;-88
2022/08/29 08:50:08;;;;;;;;;;;;;;;;;;6065512;23;7154;-88
2022/08/29 08:52:34;;;;;;;;;;;;;;;;;;6041810;23;8708;-86
2022/08/29 08:55:09;;;;;;;;;;;;;;;;;;6042661;23;8380;-88
2022/08/29 08:57:38;;;;;;;;;;;;;;;;;;6067063;23;8702;-88
2022/08/29 09:00:05;;;;;;;;;;;;;;;;;;6065570;23;8535;-89
2022/08/29 09:02:49;;;;;;;;;;;;;;;;;;6065086;23;8422;-88
2022/08/29 09:05:18;;;;;;;;;;;;;;;;;;6066352;23;8749;-85
2022/08/29 09:07:58;;;;;;;;;;;;;;;;;;6040726;23;8451;-88
2022/08/29 09:10:24;;;;;;;;;;;;;;;;;;6065562;23;8425;-87
2022/08/29 09:13:08;;;;;;;;;;;;;;;;;;6042454;23;8449;-88
2022/08/29 09:15:43;;;;;;;;;;;;;;;;;;6040894;23;8932;-86
2022/08/29 09:18:16;;;;;;;;;;;;;;;;;;6067234;23;8445;-87
2022/08/29 09:20:42;;;;;;;;;;;;;;;;;;6064865;23;8523;-86
2022/08/29 09:23:27;;;;;;;;;;;;;;;;;;6064444;23;8329;-87
2022/08/29 09:25:53;;;;;;;;;;;;;;;;;;6064751;23;7049;-88
2022/08/29 09:28:18;;;;;;;;;;;;;;;;;;6064544;23;7530;-87
2022/08/29 09:31:04;;;;;;;;;;;;;;;;;;6064721;23;7034;-86
2022/08/29 09:33:41;;;;;;;;;;;;;;;;;;6063504;23;7129;-85
2022/08/29 09:36:11;;;;;;;;;;;;;;;;;;6064339;23;8642;-84
2022/08/29 09:38:37;;;;;;;;;;;;;;;;;;6064581;23;6978;-85
2022/08/29 09:41:06;;;;;;;;;;;;;;;;;;6063854;23;7025;-87
2022/08/29 09:43:45;;;;;;;;;;;;;;;;;;6063833;23;9005;-85
2022/08/29 09:46:11;;;;;;;;;;;;;;;;;;6065361;23;9143;-85
2022/08/29 09:48:42;;;;;;;;;;;;;;;;;;6040499;23;8522;-85
2022/08/29 09:51:14;;;;;;;;;;;;;;;;;;6063839;23;8368;-86
2022/08/29 09:53:40;;;;;;;;;;;;;;;;;;6064496;23;9068;-84
2022/08/29 09:56:09;;;;;;;;;;;;;;;;;;6064409;23;8733;-85
2022/08/29 09:58:38;;;;;;;;;;;;;;;;;;6063618;23;8494;-85
2022/08/29 10:01:08;;;;;;;;;;;;;;;;;;6064558;23;9243;-85
2022/08/29 10:03:38;;;;;;;;;;;;;;;;;;6064688;23;8886;-86
2022/08/29 10:06:15;;;;;;;;;;;;;;;;;;6063954;23;7355;-86
2022/08/29 10:08:42;;;;;;;;;;;;;;;;;;6064467;23;8395;-85
2022/08/29 10:11:27;;;;;;;;;;;;;;;;;;6063893;23;8652;-85
2022/08/29 10:13:55;;;;;;;;;;;;;;;;;;6063212;23;8471;-83
2022/08/29 10:16:33;;;;;;;;;;;;;;;;;;6064173;23;8550;-85
2022/08/29 10:19:04;;;;;;;;;;;;;;;;;;6064474;23;7060;-86
2022/08/29 10:21:35;;;;;;;;;;;;;;;;;;6064329;23;7045;-87
2022/08/29 10:24:10;;;;;;;;;;;;;;;;;;6040216;23;8581;-86
2022/08/29 10:26:46;;;;;;;;;;;;;;;;;;6040216;23;8697;-86
2022/08/29 10:29:21;;;;;;;;;;;;;;;;;;6063892;23;7068;-86
2022/08/29 10:31:58;;;;;;;;;;;;;;;;;;6039334;23;8544;-85
2022/08/29 10:34:24;;;;;;;;;;;;;;;;;;6040773;23;7258;-86
2022/08/29 10:36:56;;;;;;;;;;;;;;;;;;6042007;23;8387;-85
2022/08/29 10:39:41;;;;;;;;;;;;;;;;;;6065484;23;8419;-85
2022/08/29 10:42:10;;;;;;;;;;;;;;;;;;6065338;23;8397;-85
2022/08/29 10:44:35;;;;;;;;;;;;;;;;;;6065468;23;8522;-86
2022/08/29 10:47:04;;;;;;;;;;;;;;;;;;6042011;23;8715;-86
2022/08/29 10:49:32;;;;;;;;;;;;;;;;;;6042230;23;8634;-86
2022/08/29 10:52:04;;;;;;;;;;;;;;;;;;6042030;23;8397;-85
2022/08/29 10:54:30;;;;;;;;;;;;;;;;;;6042046;23;8455;-87
2022/08/29 10:56:58;;;;;;;;;;;;;;;;;;6041895;23;8640;-83
2022/08/29 10:59:36;;;;;;;;;;;;;;;;;;6065865;23;8380;-85
2022/08/29 11:02:20;;;;;;;;;;;;;;;;;;6042100;23;7158;-87
2022/08/29 11:04:59;;;;;;;;;;;;;;;;;;6065844;23;7063;-84
2022/08/29 11:07:27;;;;;;;;;;;;;;;;;;6066163;23;8519;-84
2022/08/29 11:09:59;;;;;;;;;;;;;;;;;;6042072;23;8590;-86
2022/08/29 11:12:28;;;;;;;;;;;;;;;;;;6065891;23;8822;-87
2022/08/29 11:15:17;;;;;;;;;;;;;;;;;;6042259;23;9413;-87
2022/08/29 11:17:47;;;;;;;;;;;;;;;;;;6038623;23;8422;-87
2022/08/29 11:20:23;;;;;;;;;;;;;;;;;;6066314;23;8710;-87
2022/08/29 11:22:52;;;;;;;;;;;;;;;;;;6065824;23;8432;-86
2022/08/29 11:25:19;;;;;;;;;;;;;;;;;;6065561;23;8872;-86
2022/08/29 11:27:47;;;;;;;;;;;;;;;;;;6066796;23;8435;-86
2022/08/29 11:30:23;;;;;;;;;;;;;;;;;;6041817;23;8585;-86
2022/08/29 11:32:48;;;;;;;;;;;;;;;;;;6065840;23;8416;-86
2022/08/29 11:35:34;;;;;;;;;;;;;;;;;;6041733;23;8577;-86
2022/08/29 11:38:37;;;;;;;;;;;;;;;;;;6065309;23;7156;-87
2022/08/29 11:41:02;;;;;;;;;;;;;;;;;;6065548;23;7047;-88
2022/08/29 11:43:34;;;;;;;;;;;;;;;;;;6041793;23;8426;-86
2022/08/29 11:46:02;;;;;;;;;;;;;;;;;;6065245;23;8524;-88
2022/08/29 11:48:39;;;;;;;;;;;;;;;;;;6065461;23;8491;-87
2022/08/29 11:51:23;;;;;;;;;;;;;;;;;;6065853;23;8461;-87
2022/08/29 11:53:48;;;;;;;;;;;;;;;;;;6065713;23;8641;-87
2022/08/29 11:56:14;;;;;;;;;;;;;;;;;;6065301;23;8410;-84
2022/08/29 11:58:44;;;;;;;;;;;;;;;;;;6035076;23;8330;-84
2022/08/29 12:01:30;;;;;;;;;;;;;;;;;;6041809;23;8792;-84
2022/08/29 12:03:56;;;;;;;;;;;;;;;;;;6027005;23;8596;-84
2022/08/29 12:06:33;;;;;;;;;;;;;;;;;;6041722;23;7183;-84
2022/08/29 12:09:11;;;;;;;;;;;;;;;;;;6041482;23;9171;-85
2022/08/29 12:12:00;;;;;;;;;;;;;;;;;;6017875;23;8408;-85
2022/08/29 12:14:41;;;;;;;;;;;;;;;;;;6029738;23;7899;-85
2022/08/29 12:17:09;;;;;;;;;;;;;;;;;;6041345;23;8432;-84
2022/08/29 12:19:45;;;;;;;;;;;;;;;;;;6041676;23;8540;-85
2022/08/29 12:22:30;;;;;;;;;;;;;;;;;;6017924;23;7342;-85
2022/08/29 12:24:55;;;;;;;;;;;;;;;;;;6017731;23;8717;-84
2022/08/29 12:27:23;;;;;;;;;;;;;;;;;;6040990;23;8542;-85
2022/08/29 12:29:50;;;;;;;;;;;;;;;;;;6041261;23;8544;-86
2022/08/29 12:32:29;;;;;;;;;;;;;;;;;;6041403;23;8759;-85
2022/08/29 12:35:13;;;;;;;;;;;;;;;;;;6041138;23;8458;-86
2022/08/29 12:38:10;;;;;;;;;;;;;;;;;;6041343;23;8667;-87
2022/08/29 12:40:35;;;;;;;;;;;;;;;;;;6041155;23;8719;-88
2022/08/29 12:43:04;;;;;;;;;;;;;;;;;;6017365;23;9354;-88
2022/08/29 12:45:31;;;;;;;;;;;;;;;;;;6017752;23;8587;-87
2022/08/29 12:48:00;;;;;;;;;;;;;;;;;;6041023;23;7445;-87
2022/08/29 12:50:30;;;;;;;;;;;;;;;;;;6041068;23;8461;-87
2022/08/29 12:53:02;;;;;;;;;;;;;;;;;;6041303;23;8408;-87
2022/08/29 12:55:35;;;;;;;;;;;;;;;;;;6041589;23;8468;-87
2022/08/29 12:58:01;;;;;;;;;;;;;;;;;;6040976;23;7055;-88
2022/08/29 13:00:29;;;;;;;;;;;;;;;;;;6040395;23;8620;-89
2022/08/29 13:03:07;;;;;;;;;;;;;;;;;;6041041;23;8453;-89
2022/08/29 13:05:35;;;;;;;;;;;;;;;;;;6016912;23;8406;-90
2022/08/29 13:08:06;;;;;;;;;;;;;;;;;;6040678;23;8931;-87
2022/08/29 13:10:37;;;;;;;;;;;;;;;;;;6040935;23;8884;-86
2022/08/29 13:13:08;;;;;;;;;;;;;;;;;;6041041;23;7376;-86
2022/08/29 13:15:33;;;;;;;;;;;;;;;;;;6040657;23;7208;-87
2022/08/29 13:17:59;;;;;;;;;;;;;;;;;;6040795;23;8298;-87
2022/08/29 13:20:37;;;;;;;;;;;;;;;;;;6041207;23;7153;-85
2022/08/29 13:23:14;;;;;;;;;;;;;;;;;;6017259;23;8469;-88
2022/08/29 13:25:48;;;;;;;;;;;;;;;;;;6040664;23;9160;-86
2022/08/29 13:28:19;;;;;;;;;;;;;;;;;;6017193;23;8590;-83
2022/08/29 13:31:01;;;;;;;;;;;;;;;;;;6040746;23;7446;-85
2022/08/29 13:33:28;;;;;;;;;;;;;;;;;;6040624;23;8402;-85
2022/08/29 13:35:53;;;;;;;;;;;;;;;;;;6040478;23;7412;-85
2022/08/29 13:38:22;;;;;;;;;;;;;;;;;;6041096;23;8424;-86
2022/08/29 13:40:53;;;;;;;;;;;;;;;;;;6040457;23;8416;-83
2022/08/29 13:43:31;;;;;;;;;;;;;;;;;;6041001;23;8409;-84
2022/08/29 13:46:15;;;;;;;;;;;;;;;;;;6016875;23;8475;-84
2022/08/29 13:48:41;;;;;;;;;;;;;;;;;;6040570;23;8362;-86
2022/08/29 13:51:07;;;;;;;;;;;;;;;;;;6040576;23;8423;-85
2022/08/29 13:53:33;;;;;;;;;;;;;;;;;;6040944;23;8690;-85
2022/08/29 13:56:00;;;;;;;;;;;;;;;;;;6040348;23;8616;-85
2022/08/29 13:58:28;;;;;;;;;;;;;;;;;;6044009;23;8598;-85
2022/08/29 14:00:55;;;;;;;;;;;;;;;;;;6064341;23;7373;-84
2022/08/29 14:03:21;;;;;;;;;;;;;;;;;;6064718;23;8429;-86
2022/08/29 14:05:55;;;;;;;;;;;;;;;;;;6065241;23;7037;-85
2022/08/29 14:08:22;;;;;;;;;;;;;;;;;;6064186;23;7434;-85
2022/08/29 14:10:48;;;;;;;;;;;;;;;;;;6064409;23;8425;-84
2022/08/29 14:13:14;;;;;;;;;;;;;;;;;;6064374;23;7162;-85
2022/08/29 14:15:39;;;;;;;;;;;;;;;;;;6064419;23;8782;-85
2022/08/29 14:18:05;;;;;;;;;;;;;;;;;;6064325;23;8726;-84
2022/08/29 14:20:30;;;;;;;;;;;;;;;;;;6064550;23;8480;-84
2022/08/29 14:22:56;;;;;;;;;;;;;;;;;;6064417;23;8444;-85
2022/08/29 14:25:22;;;;;;;;;;;;;;;;;;6065128;23;8607;-87
2022/08/29 14:27:48;;;;;;;;;;;;;;;;;;6064937;23;8909;-85
2022/08/29 14:30:15;;;;;;;;;;;;;;;;;;6064308;23;8507;-84
2022/08/29 14:32:41;;;;;;;;;;;;;;;;;;6064661;23;8493;-85
2022/08/29 14:35:08;;;;;;;;;;;;;;;;;;6064296;23;7154;-85
2022/08/29 14:37:34;;;;;;;;;;;;;;;;;;6064139;23;7167;-85
2022/08/29 14:39:59;;;;;;;;;;;;;;;;;;6064495;23;7296;-86
2022/08/29 14:42:25;;;;;;;;;;;;;;;;;;6064932;23;8372;-85
2022/08/29 14:44:50;;;;;;;;;;;;;;;;;;6064055;23;8444;-85
2022/08/29 14:47:16;;;;;;;;;;;;;;;;;;6064528;23;8685;-86
2022/08/29 14:49:42;;;;;;;;;;;;;;;;;;6064594;23;8460;-84
2022/08/29 14:52:08;;;;;;;;;;;;;;;;;;6064286;23;8710;-85
2022/08/29 14:54:33;;;;;;;;;;;;;;;;;;6064998;23;8430;-87
2022/08/29 14:56:59;;;;;;;;;;;;;;;;;;6064177;23;8399;-85
2022/08/29 14:59:25;;;;;;;;;;;;;;;;;;6064251;23;8476;-85
2022/08/29 15:01:51;;;;;;;;;;;;;;;;;;6064060;23;8540;-86
2022/08/29 15:04:17;;;;;;;;;;;;;;;;;;6063891;23;9020;-86
2022/08/29 15:06:43;;;;;;;;;;;;;;;;;;6064162;23;8413;-85
2022/08/29 15:09:08;;;;;;;;;;;;;;;;;;6064104;23;7157;-85
2022/08/29 15:11:34;;;;;;;;;;;;;;;;;;6064187;23;8507;-85
2022/08/29 15:14:00;;;;;;;;;;;;;;;;;;6065419;23;8536;-83
2022/08/29 15:16:27;;;;;;;;;;;;;;;;;;6064216;23;7172;-85
2022/08/29 15:18:53;;;;;;;;;;;;;;;;;;6064621;23;7095;-85
2022/08/29 15:21:18;;;;;;;;;;;;;;;;;;6064751;23;8547;-85
2022/08/29 15:23:44;;;;;;;;;;;;;;;;;;6065651;23;8468;-85
2022/08/29 15:26:10;;;;;;;;;;;;;;;;;;6065678;23;8515;-85
2022/08/29 15:28:36;;;;;;;;;;;;;;;;;;6065489;23;7973;-84
2022/08/29 15:31:01;;;;;;;;;;;;;;;;;;6065547;23;8531;-85
2022/08/29 15:33:27;;;;;;;;;;;;;;;;;;6066083;23;9034;-84
2022/08/29 15:35:52;;;;;;;;;;;;;;;;;;6065609;23;7030;-88
2022/08/29 15:38:18;;;;;;;;;;;;;;;;;;6065478;23;8707;-85
2022/08/29 15:40:43;;;;;;;;;;;;;;;;;;6066327;23;8652;-86
2022/08/29 15:43:10;;;;;;;;;;;;;;;;;;6065706;23;8357;-86
2022/08/29 15:45:36;;;;;;;;;;;;;;;;;;6065466;23;8439;-84
2022/08/29 15:48:02;;;;;;;;;;;;;;;;;;6065566;23;8907;-84
2022/08/29 15:50:28;;;;;;;;;;;;;;;;;;6065376;23;8513;-85
2022/08/29 15:52:54;;;;;;;;;;;;;;;;;;6066255;23;9021;-85
2022/08/29 15:55:20;;;;;;;;;;;;;;;;;;6065626;23;8322;-87
2022/08/29 15:57:46;;;;;;;;;;;;;;;;;;6065796;23;8821;-85
2022/08/29 16:00:13;;;;;;;;;;;;;;;;;;6041486;23;7145;-86
2022/08/29 16:02:39;;;;;;;;;;;;;;;;;;6041511;23;8475;-86
2022/08/29 16:05:05;;;;;;;;;;;;;;;;;;6041436;23;8732;-84
2022/08/29 16:07:30;;;;;;;;;;;;;;;;;;6041629;23;7043;-86
2022/08/29 16:09:58;;;;;;;;;;;;;;;;;;6042433;23;8965;-83
2022/08/29 16:12:25;;;;;;;;;;;;;;;;;;6041801;23;8444;-86
2022/08/29 16:14:50;;;;;;;;;;;;;;;;;;6041294;23;8343;-86
2022/08/29 16:17:16;;;;;;;;;;;;;;;;;;6041301;23;8517;-84
2022/08/29 16:19:41;;;;;;;;;;;;;;;;;;6041752;23;8765;-82
2022/08/29 16:22:08;;;;;;;;;;;;;;;;;;6041202;23;7038;-85
2022/08/29 16:24:33;;;;;;;;;;;;;;;;;;6041206;23;8396;-85
2022/08/29 16:26:59;;;;;;;;;;;;;;;;;;6041489;23;8463;-84
2022/08/29 16:29:24;;;;;;;;;;;;;;;;;;6040952;23;8551;-84
2022/08/29 16:31:50;;;;;;;;;;;;;;;;;;6040359;23;8445;-87
2022/08/29 16:34:16;;;;;;;;;;;;;;;;;;6039994;23;7197;-87
2022/08/29 16:36:41;;;;;;;;;;;;;;;;;;6041535;23;8616;-87
2022/08/29 16:39:07;;;;;;;;;;;;;;;;;;6041127;23;8532;-87
2022/08/29 16:41:32;;;;;;;;;;;;;;;;;;6040738;23;8570;-84
2022/08/29 16:43:58;;;;;;;;;;;;;;;;;;6041448;23;8543;-85
2022/08/29 16:46:25;;;;;;;;;;;;;;;;;;6041283;23;8417;-85
2022/08/29 16:48:51;;;;;;;;;;;;;;;;;;6041467;23;8482;-85
2022/08/29 16:51:20;;;;;;;;;;;;;;;;;;6040983;23;7382;-85
2022/08/29 16:53:45;;;;;;;;;;;;;;;;;;6041221;23;8770;-85
2022/08/29 16:56:12;;;;;;;;;;;;;;;;;;6041661;23;8699;-84
2022/08/29 17:01:23;;;;;;;;;;;;;;;;;;6042541;23;6947;-86
2022/08/29 17:03:48;;;;;;;;;;;;;;;;;;6040796;23;8406;-86
2022/08/29 17:06:14;;;;;;;;;;;;;;;;;;6041097;23;7031;-86
2022/08/29 17:18:30;;;;;;;;;;;;;;;;;;6042120;23;6945;-84
2022/08/29 17:20:58;;;;;;;;;;;;;;;;;;6040098;23;8416;-85
2022/08/29 17:23:28;;;;;;;;;;;;;;;;;;6040221;23;8840;-85